sensor_id;sensor_type;location;lat;lon;timestamp;pressure;altitude;pressure_sealevel;temperature;humidity
9139;BME280;4604;48.616;9.548;2023-03-30T00:00:39;96654.97;;;15.22;56.96
9139;BME280;4604;48.616;9.548;2023-03-30T00:03:08;96661.44;;;15.27;56.58
9139;BME280;4604;48.616;9.548;2023-03-30T00:05:34;96654.31;;;15.19;57.15
9139;BME280;4604;48.616;9.548;2023-03-30T00:08:02;96642.75;;;15.04;57.70
9139;BME280;4604;48.616;9.548;2023-03-30T00:10:30;96670.50;;;15.10;57.96
9139;BME280;4604;48.616;9.548;2023-03-30T00:12:57;96627.75;;;14.80;58.22
9139;BME280;4604;48.616;9.548;2023-03-30T00:15:24;96654.47;;;14.95;58.91
9139;BME280;4604;48.616;9.548;2023-03-30T00:17:50;96652.44;;;14.97;59.00
9139;BME280;4604;48.616;9.548;2023-03-30T00:20:20;96648.28;;;15.03;59.22
9139;BME280;4604;48.616;9.548;2023-03-30T00:22:47;96642.16;;;14.94;59.47
9139;BME280;4604;48.616;9.548;2023-03-30T00:25:15;96640.66;;;14.91;60.97
9139;BME280;4604;48.616;9.548;2023-03-30T00:27:44;96623.97;;;14.83;63.98
9139;BME280;4604;48.616;9.548;2023-03-30T00:30:12;96647.50;;;14.86;66.47
9139;BME280;4604;48.616;9.548;2023-03-30T00:32:39;96650.53;;;14.74;67.68
9139;BME280;4604;48.616;9.548;2023-03-30T00:35:07;96647.41;;;14.71;68.06
9139;BME280;4604;48.616;9.548;2023-03-30T00:37:35;96642.31;;;14.61;68.15
9139;BME280;4604;48.616;9.548;2023-03-30T00:40:02;96633.34;;;14.46;69.65
9139;BME280;4604;48.616;9.548;2023-03-30T00:42:32;96628.19;;;14.52;69.14
9139;BME280;4604;48.616;9.548;2023-03-30T00:45:22;96626.38;;;14.45;69.00
9139;BME280;4604;48.616;9.548;2023-03-30T00:47:53;96624.38;;;14.55;68.87
9139;BME280;4604;48.616;9.548;2023-03-30T00:50:25;96613.75;;;14.47;69.25
9139;BME280;4604;48.616;9.548;2023-03-30T00:52:56;96610.28;;;14.46;69.23
9139;BME280;4604;48.616;9.548;2023-03-30T00:55:26;96600.03;;;14.35;69.57
9139;BME280;4604;48.616;9.548;2023-03-30T00:57:54;96603.00;;;14.40;69.50
9139;BME280;4604;48.616;9.548;2023-03-30T01:00:23;96594.38;;;14.38;69.69
9139;BME280;4604;48.616;9.548;2023-03-30T01:02:52;96599.19;;;14.34;69.78
9139;BME280;4604;48.616;9.548;2023-03-30T01:05:22;96583.63;;;14.31;70.22
9139;BME280;4604;48.616;9.548;2023-03-30T01:07:50;96587.94;;;14.32;70.05
9139;BME280;4604;48.616;9.548;2023-03-30T01:10:18;96582.94;;;14.38;69.72
9139;BME280;4604;48.616;9.548;2023-03-30T01:12:45;96582.47;;;14.34;69.70
9139;BME280;4604;48.616;9.548;2023-03-30T01:15:12;96572.31;;;14.38;69.57
9139;BME280;4604;48.616;9.548;2023-03-30T01:18:00;96563.31;;;14.55;68.75
9139;BME280;4604;48.616;9.548;2023-03-30T01:20:47;96566.44;;;14.50;69.34
9139;BME280;4604;48.616;9.548;2023-03-30T01:23:36;96558.44;;;14.67;68.12
9139;BME280;4604;48.616;9.548;2023-03-30T01:26:36;96553.56;;;14.79;67.79
9139;BME280;4604;48.616;9.548;2023-03-30T01:29:14;96562.34;;;14.79;67.50
9139;BME280;4604;48.616;9.548;2023-03-30T01:31:53;96560.06;;;14.76;67.28
9139;BME280;4604;48.616;9.548;2023-03-30T01:38:08;96547.72;;;14.83;66.92
9139;BME280;4604;48.616;9.548;2023-03-30T01:40:47;96542.06;;;14.86;66.01
9139;BME280;4604;48.616;9.548;2023-03-30T01:43:22;96544.34;;;14.89;66.19
9139;BME280;4604;48.616;9.548;2023-03-30T01:45:54;96573.63;;;15.12;65.49
9139;BME280;4604;48.616;9.548;2023-03-30T01:48:27;96570.09;;;15.20;68.61
9139;BME280;4604;48.616;9.548;2023-03-30T01:50:59;96594.22;;;15.10;71.05
9139;BME280;4604;48.616;9.548;2023-03-30T01:53:34;96601.03;;;15.13;69.91
9139;BME280;4604;48.616;9.548;2023-03-30T01:56:06;96621.47;;;15.12;69.67
9139;BME280;4604;48.616;9.548;2023-03-30T01:58:36;96614.84;;;15.08;69.63
9139;BME280;4604;48.616;9.548;2023-03-30T02:01:05;96609.06;;;15.05;70.10
9139;BME280;4604;48.616;9.548;2023-03-30T02:03:37;96611.78;;;15.19;71.51
9139;BME280;4604;48.616;9.548;2023-03-30T02:06:09;96610.00;;;15.12;73.09
9139;BME280;4604;48.616;9.548;2023-03-30T02:08:38;96604.34;;;15.15;73.10
9139;BME280;4604;48.616;9.548;2023-03-30T02:11:07;96603.97;;;15.18;71.84
9139;BME280;4604;48.616;9.548;2023-03-30T02:13:36;96612.47;;;15.13;72.78
9139;BME280;4604;48.616;9.548;2023-03-30T02:16:08;96611.06;;;15.03;74.61
9139;BME280;4604;48.616;9.548;2023-03-30T02:18:38;96627.22;;;14.93;76.02
9139;BME280;4604;48.616;9.548;2023-03-30T02:21:05;96637.72;;;14.86;77.45
9139;BME280;4604;48.616;9.548;2023-03-30T02:23:34;96641.84;;;14.89;79.25
9139;BME280;4604;48.616;9.548;2023-03-30T02:26:03;96629.63;;;14.71;82.96
9139;BME280;4604;48.616;9.548;2023-03-30T02:28:33;96628.31;;;14.75;84.60
9139;BME280;4604;48.616;9.548;2023-03-30T02:31:00;96623.66;;;14.69;83.74
9139;BME280;4604;48.616;9.548;2023-03-30T02:33:34;96611.41;;;14.68;86.18
9139;BME280;4604;48.616;9.548;2023-03-30T02:36:16;96601.94;;;14.66;88.48
9139;BME280;4604;48.616;9.548;2023-03-30T02:38:54;96601.81;;;14.43;89.79
9139;BME280;4604;48.616;9.548;2023-03-30T02:41:39;96609.13;;;14.41;91.09
9139;BME280;4604;48.616;9.548;2023-03-30T02:44:17;96605.06;;;14.13;91.89
9139;BME280;4604;48.616;9.548;2023-03-30T02:46:58;96617.63;;;14.28;91.88
9139;BME280;4604;48.616;9.548;2023-03-30T02:49:35;96612.53;;;14.10;90.40
9139;BME280;4604;48.616;9.548;2023-03-30T02:52:16;96610.19;;;14.23;89.44
9139;BME280;4604;48.616;9.548;2023-03-30T02:54:50;96625.94;;;14.17;86.63
9139;BME280;4604;48.616;9.548;2023-03-30T02:57:27;96627.41;;;14.35;86.03
9139;BME280;4604;48.616;9.548;2023-03-30T03:00:00;96627.41;;;14.35;86.45
9139;BME280;4604;48.616;9.548;2023-03-30T03:02:34;96627.03;;;14.39;87.26
9139;BME280;4604;48.616;9.548;2023-03-30T03:05:06;96622.53;;;14.55;86.42
9139;BME280;4604;48.616;9.548;2023-03-30T03:07:34;96623.56;;;14.46;86.79
9139;BME280;4604;48.616;9.548;2023-03-30T03:10:03;96627.03;;;14.55;85.84
9139;BME280;4604;48.616;9.548;2023-03-30T03:12:30;96607.25;;;14.66;86.21
9139;BME280;4604;48.616;9.548;2023-03-30T03:14:59;96617.91;;;14.58;86.71
9139;BME280;4604;48.616;9.548;2023-03-30T03:17:27;96605.78;;;14.55;86.89
9139;BME280;4604;48.616;9.548;2023-03-30T03:19:58;96607.88;;;14.68;87.71
9139;BME280;4604;48.616;9.548;2023-03-30T03:22:25;96598.84;;;14.54;90.36
9139;BME280;4604;48.616;9.548;2023-03-30T03:24:52;96581.09;;;14.38;91.94
9139;BME280;4604;48.616;9.548;2023-03-30T03:27:18;96596.81;;;14.48;94.63
9139;BME280;4604;48.616;9.548;2023-03-30T03:29:45;96580.28;;;14.38;95.84
9139;BME280;4604;48.616;9.548;2023-03-30T03:32:15;96573.84;;;14.24;97.37
9139;BME280;4604;48.616;9.548;2023-03-30T03:34:42;96556.00;;;14.09;99.18
9139;BME280;4604;48.616;9.548;2023-03-30T03:37:10;96544.41;;;13.94;100.00
9139;BME280;4604;48.616;9.548;2023-03-30T03:39:36;96550.72;;;13.85;100.00
9139;BME280;4604;48.616;9.548;2023-03-30T03:42:04;96542.63;;;13.78;100.00
9139;BME280;4604;48.616;9.548;2023-03-30T03:44:31;96521.22;;;13.80;100.00
9139;BME280;4604;48.616;9.548;2023-03-30T03:46:58;96503.69;;;13.70;100.00
9139;BME280;4604;48.616;9.548;2023-03-30T03:49:26;96494.59;;;13.57;100.00
9139;BME280;4604;48.616;9.548;2023-03-30T03:51:52;96503.22;;;13.59;100.00
9139;BME280;4604;48.616;9.548;2023-03-30T03:54:19;96503.88;;;13.53;100.00
9139;BME280;4604;48.616;9.548;2023-03-30T03:56:46;96504.72;;;13.45;100.00
9139;BME280;4604;48.616;9.548;2023-03-30T03:59:12;96505.72;;;13.44;100.00
9139;BME280;4604;48.616;9.548;2023-03-30T04:01:39;96503.56;;;13.47;100.00
9139;BME280;4604;48.616;9.548;2023-03-30T04:04:06;96500.72;;;13.57;100.00
9139;BME280;4604;48.616;9.548;2023-03-30T04:06:34;96499.41;;;13.61;100.00
9139;BME280;4604;48.616;9.548;2023-03-30T04:09:00;96511.31;;;13.65;100.00
9139;BME280;4604;48.616;9.548;2023-03-30T04:11:27;96503.53;;;13.64;100.00
9139;BME280;4604;48.616;9.548;2023-03-30T04:13:54;96506.53;;;13.61;100.00
9139;BME280;4604;48.616;9.548;2023-03-30T04:16:20;96481.81;;;13.60;100.00
9139;BME280;4604;48.616;9.548;2023-03-30T04:18:47;96490.78;;;13.59;100.00
9139;BME280;4604;48.616;9.548;2023-03-30T04:21:14;96468.44;;;13.54;100.00
9139;BME280;4604;48.616;9.548;2023-03-30T04:23:43;96464.25;;;13.59;100.00
9139;BME280;4604;48.616;9.548;2023-03-30T04:26:13;96461.97;;;13.56;100.00
9139;BME280;4604;48.616;9.548;2023-03-30T04:28:40;96457.78;;;13.62;100.00
9139;BME280;4604;48.616;9.548;2023-03-30T04:31:08;96454.94;;;13.72;100.00
9139;BME280;4604;48.616;9.548;2023-03-30T04:33:38;96449.28;;;13.83;99.50
9139;BME280;4604;48.616;9.548;2023-03-30T04:36:10;96432.19;;;13.85;99.73
9139;BME280;4604;48.616;9.548;2023-03-30T04:38:43;96434.53;;;13.80;100.00
9139;BME280;4604;48.616;9.548;2023-03-30T04:41:10;96412.53;;;13.72;100.00
9139;BME280;4604;48.616;9.548;2023-03-30T04:43:38;96416.69;;;13.66;100.00
9139;BME280;4604;48.616;9.548;2023-03-30T04:46:05;96410.88;;;13.70;100.00
9139;BME280;4604;48.616;9.548;2023-03-30T04:48:33;96411.19;;;13.76;100.00
9139;BME280;4604;48.616;9.548;2023-03-30T04:50:59;96406.34;;;13.79;100.00
9139;BME280;4604;48.616;9.548;2023-03-30T04:53:26;96385.84;;;13.73;99.25
9139;BME280;4604;48.616;9.548;2023-03-30T04:55:54;96406.31;;;13.87;99.40
9139;BME280;4604;48.616;9.548;2023-03-30T04:58:21;96414.25;;;13.87;100.00
9139;BME280;4604;48.616;9.548;2023-03-30T05:00:47;96406.00;;;13.82;100.00
9139;BME280;4604;48.616;9.548;2023-03-30T05:03:14;96390.13;;;13.74;100.00
9139;BME280;4604;48.616;9.548;2023-03-30T05:05:41;96411.16;;;13.84;100.00
9139;BME280;4604;48.616;9.548;2023-03-30T05:08:07;96411.09;;;13.92;99.04
9139;BME280;4604;48.616;9.548;2023-03-30T05:10:34;96415.78;;;13.82;99.75
9139;BME280;4604;48.616;9.548;2023-03-30T05:13:05;96418.13;;;13.77;100.00
9139;BME280;4604;48.616;9.548;2023-03-30T05:15:32;96406.41;;;13.71;100.00
9139;BME280;4604;48.616;9.548;2023-03-30T05:17:59;96411.00;;;13.77;100.00
9139;BME280;4604;48.616;9.548;2023-03-30T05:20:25;96396.25;;;13.75;100.00
9139;BME280;4604;48.616;9.548;2023-03-30T05:22:52;96394.25;;;13.77;100.00
9139;BME280;4604;48.616;9.548;2023-03-30T05:25:19;96372.53;;;13.81;99.56
9139;BME280;4604;48.616;9.548;2023-03-30T05:27:46;96378.56;;;13.67;100.00
9139;BME280;4604;48.616;9.548;2023-03-30T05:30:14;96369.72;;;13.75;99.49
9139;BME280;4604;48.616;9.548;2023-03-30T05:32:41;96371.91;;;13.71;99.45
9139;BME280;4604;48.616;9.548;2023-03-30T05:35:08;96365.44;;;13.74;98.45
9139;BME280;4604;48.616;9.548;2023-03-30T05:37:36;96356.16;;;13.78;97.34
9139;BME280;4604;48.616;9.548;2023-03-30T05:40:03;96363.75;;;13.81;96.60
9139;BME280;4604;48.616;9.548;2023-03-30T05:42:34;96355.91;;;13.87;95.41
9139;BME280;4604;48.616;9.548;2023-03-30T05:45:00;96342.44;;;13.97;92.42
9139;BME280;4604;48.616;9.548;2023-03-30T05:47:28;96345.63;;;14.16;90.04
9139;BME280;4604;48.616;9.548;2023-03-30T05:49:55;96347.47;;;14.15;89.34
9139;BME280;4604;48.616;9.548;2023-03-30T05:52:22;96342.91;;;14.24;87.58
9139;BME280;4604;48.616;9.548;2023-03-30T05:54:48;96340.75;;;14.27;86.78
9139;BME280;4604;48.616;9.548;2023-03-30T05:57:15;96348.56;;;14.29;85.45
9139;BME280;4604;48.616;9.548;2023-03-30T05:59:42;96350.06;;;14.23;85.75
9139;BME280;4604;48.616;9.548;2023-03-30T06:02:09;96359.47;;;14.34;84.89
9139;BME280;4604;48.616;9.548;2023-03-30T06:04:38;96352.91;;;14.22;84.64
9139;BME280;4604;48.616;9.548;2023-03-30T06:07:07;96361.75;;;14.37;84.43
9139;BME280;4604;48.616;9.548;2023-03-30T06:09:35;96351.25;;;14.44;84.10
9139;BME280;4604;48.616;9.548;2023-03-30T06:12:02;96354.63;;;14.38;83.57
9139;BME280;4604;48.616;9.548;2023-03-30T06:14:30;96369.88;;;14.35;84.04
9139;BME280;4604;48.616;9.548;2023-03-30T06:16:59;96362.75;;;14.36;84.54
9139;BME280;4604;48.616;9.548;2023-03-30T06:19:27;96366.84;;;14.47;83.44
9139;BME280;4604;48.616;9.548;2023-03-30T06:21:55;96368.53;;;14.40;83.48
9139;BME280;4604;48.616;9.548;2023-03-30T06:24:21;96371.94;;;14.48;83.32
9139;BME280;4604;48.616;9.548;2023-03-30T06:26:48;96380.28;;;14.45;83.56
9139;BME280;4604;48.616;9.548;2023-03-30T06:29:15;96389.88;;;14.54;82.00
9139;BME280;4604;48.616;9.548;2023-03-30T06:31:42;96406.81;;;14.45;82.95
9139;BME280;4604;48.616;9.548;2023-03-30T06:34:12;96420.22;;;14.52;82.01
9139;BME280;4604;48.616;9.548;2023-03-30T06:36:38;96424.84;;;14.58;79.94
9139;BME280;4604;48.616;9.548;2023-03-30T06:39:07;96427.84;;;14.63;79.91
9139;BME280;4604;48.616;9.548;2023-03-30T06:41:37;96454.06;;;14.58;79.54
9139;BME280;4604;48.616;9.548;2023-03-30T06:44:04;96453.78;;;14.45;80.64
9139;BME280;4604;48.616;9.548;2023-03-30T06:46:34;96441.97;;;14.55;80.46
9139;BME280;4604;48.616;9.548;2023-03-30T06:49:01;96453.66;;;14.69;77.52
9139;BME280;4604;48.616;9.548;2023-03-30T06:51:28;96439.47;;;14.85;76.47
9139;BME280;4604;48.616;9.548;2023-03-30T06:53:55;96442.03;;;14.93;77.21
9139;BME280;4604;48.616;9.548;2023-03-30T06:56:23;96439.75;;;14.90;79.20
9139;BME280;4604;48.616;9.548;2023-03-30T06:58:51;96421.84;;;14.84;80.24
9139;BME280;4604;48.616;9.548;2023-03-30T07:01:18;96414.66;;;14.70;81.28
9139;BME280;4604;48.616;9.548;2023-03-30T07:03:44;96428.06;;;14.76;81.01
9139;BME280;4604;48.616;9.548;2023-03-30T07:06:12;96451.34;;;14.89;81.51
9139;BME280;4604;48.616;9.548;2023-03-30T07:08:38;96433.38;;;14.76;82.26
9139;BME280;4604;48.616;9.548;2023-03-30T07:11:05;96453.06;;;14.82;81.76
9139;BME280;4604;48.616;9.548;2023-03-30T07:13:35;96466.84;;;14.86;82.33
9139;BME280;4604;48.616;9.548;2023-03-30T07:16:03;96483.06;;;14.91;79.95
9139;BME280;4604;48.616;9.548;2023-03-30T07:18:30;96477.22;;;14.95;79.71
9139;BME280;4604;48.616;9.548;2023-03-30T07:20:57;96487.63;;;15.05;80.49
9139;BME280;4604;48.616;9.548;2023-03-30T07:23:24;96498.72;;;15.09;81.57
9139;BME280;4604;48.616;9.548;2023-03-30T07:25:51;96497.38;;;15.13;79.25
9139;BME280;4604;48.616;9.548;2023-03-30T07:28:19;96507.47;;;15.17;78.82
9139;BME280;4604;48.616;9.548;2023-03-30T07:30:51;96530.19;;;15.20;79.76
9139;BME280;4604;48.616;9.548;2023-03-30T07:33:18;96552.41;;;15.04;82.33
9139;BME280;4604;48.616;9.548;2023-03-30T07:35:48;96566.50;;;14.82;84.69
9139;BME280;4604;48.616;9.548;2023-03-30T07:38:15;96552.00;;;14.61;86.46
9139;BME280;4604;48.616;9.548;2023-03-30T07:40:41;96573.28;;;14.45;89.03
9139;BME280;4604;48.616;9.548;2023-03-30T07:43:08;96595.88;;;14.32;90.99
9139;BME280;4604;48.616;9.548;2023-03-30T07:45:35;96594.75;;;14.27;91.65
9139;BME280;4604;48.616;9.548;2023-03-30T07:48:03;96596.75;;;14.17;92.75
9139;BME280;4604;48.616;9.548;2023-03-30T07:50:30;96587.97;;;14.16;92.49
9139;BME280;4604;48.616;9.548;2023-03-30T07:52:56;96600.72;;;14.21;95.30
9139;BME280;4604;48.616;9.548;2023-03-30T07:55:23;96618.34;;;14.05;97.74
9139;BME280;4604;48.616;9.548;2023-03-30T07:57:50;96613.72;;;13.91;100.00
9139;BME280;4604;48.616;9.548;2023-03-30T08:00:17;96603.13;;;13.83;100.00
9139;BME280;4604;48.616;9.548;2023-03-30T08:02:46;96593.00;;;13.70;100.00
9139;BME280;4604;48.616;9.548;2023-03-30T08:05:15;96580.75;;;13.77;100.00
9139;BME280;4604;48.616;9.548;2023-03-30T08:07:41;96566.97;;;13.82;100.00
9139;BME280;4604;48.616;9.548;2023-03-30T08:10:09;96553.97;;;14.11;100.00
9139;BME280;4604;48.616;9.548;2023-03-30T08:12:36;96553.81;;;14.13;100.00
9139;BME280;4604;48.616;9.548;2023-03-30T08:15:03;96573.44;;;13.96;100.00
9139;BME280;4604;48.616;9.548;2023-03-30T08:17:31;96581.72;;;14.01;100.00
9139;BME280;4604;48.616;9.548;2023-03-30T08:19:57;96594.81;;;13.94;100.00
9139;BME280;4604;48.616;9.548;2023-03-30T08:22:27;96613.06;;;13.89;100.00
9139;BME280;4604;48.616;9.548;2023-03-30T08:24:54;96612.59;;;13.85;100.00
9139;BME280;4604;48.616;9.548;2023-03-30T08:27:21;96615.03;;;13.87;100.00
9139;BME280;4604;48.616;9.548;2023-03-30T08:29:48;96616.88;;;13.86;100.00
9139;BME280;4604;48.616;9.548;2023-03-30T08:32:15;96610.59;;;13.71;100.00
9139;BME280;4604;48.616;9.548;2023-03-30T08:34:41;96610.44;;;13.56;100.00
9139;BME280;4604;48.616;9.548;2023-03-30T08:37:11;96618.03;;;13.67;100.00
9139;BME280;4604;48.616;9.548;2023-03-30T08:39:39;96634.78;;;13.52;100.00
9139;BME280;4604;48.616;9.548;2023-03-30T08:42:28;96640.75;;;13.37;100.00
9139;BME280;4604;48.616;9.548;2023-03-30T08:44:57;96639.59;;;13.40;100.00
9139;BME280;4604;48.616;9.548;2023-03-30T08:47:35;96637.41;;;13.35;100.00
9139;BME280;4604;48.616;9.548;2023-03-30T08:50:06;96629.81;;;13.40;100.00
9139;BME280;4604;48.616;9.548;2023-03-30T08:52:34;96650.78;;;13.17;100.00
9139;BME280;4604;48.616;9.548;2023-03-30T08:55:04;96640.63;;;13.04;100.00
9139;BME280;4604;48.616;9.548;2023-03-30T08:57:39;96645.56;;;12.99;100.00
9139;BME280;4604;48.616;9.548;2023-03-30T09:00:16;96652.69;;;12.99;100.00
9139;BME280;4604;48.616;9.548;2023-03-30T09:02:49;96671.91;;;13.01;100.00
9139;BME280;4604;48.616;9.548;2023-03-30T09:05:20;96681.06;;;12.72;100.00
9139;BME280;4604;48.616;9.548;2023-03-30T09:07:54;96691.09;;;12.60;100.00
9139;BME280;4604;48.616;9.548;2023-03-30T09:10:28;96685.91;;;12.77;100.00
9139;BME280;4604;48.616;9.548;2023-03-30T09:12:57;96683.72;;;12.72;100.00
9139;BME280;4604;48.616;9.548;2023-03-30T09:15:28;96689.38;;;12.77;100.00
9139;BME280;4604;48.616;9.548;2023-03-30T09:17:58;96694.06;;;12.57;100.00
9139;BME280;4604;48.616;9.548;2023-03-30T09:20:28;96684.44;;;12.48;100.00
9139;BME280;4604;48.616;9.548;2023-03-30T09:22:58;96677.84;;;12.52;100.00
9139;BME280;4604;48.616;9.548;2023-03-30T09:25:30;96645.19;;;12.43;100.00
9139;BME280;4604;48.616;9.548;2023-03-30T09:28:04;96651.47;;;12.42;100.00
9139;BME280;4604;48.616;9.548;2023-03-30T09:30:36;96650.69;;;12.50;100.00
9139;BME280;4604;48.616;9.548;2023-03-30T09:33:07;96640.16;;;12.58;100.00
9139;BME280;4604;48.616;9.548;2023-03-30T09:35:41;96647.31;;;12.66;100.00
9139;BME280;4604;48.616;9.548;2023-03-30T09:38:10;96625.81;;;12.77;100.00
9139;BME280;4604;48.616;9.548;2023-03-30T09:40:58;96625.50;;;12.80;100.00
9139;BME280;4604;48.616;9.548;2023-03-30T09:43:35;96621.88;;;12.81;100.00
9139;BME280;4604;48.616;9.548;2023-03-30T09:46:06;96624.53;;;12.90;100.00
9139;BME280;4604;48.616;9.548;2023-03-30T09:48:40;96630.47;;;12.83;100.00
9139;BME280;4604;48.616;9.548;2023-03-30T09:51:20;96606.03;;;12.98;100.00
9139;BME280;4604;48.616;9.548;2023-03-30T09:53:56;96587.28;;;12.83;100.00
9139;BME280;4604;48.616;9.548;2023-03-30T09:56:28;96596.88;;;12.92;100.00
9139;BME280;4604;48.616;9.548;2023-03-30T09:58:55;96590.44;;;12.87;100.00
9139;BME280;4604;48.616;9.548;2023-03-30T10:01:34;96586.47;;;12.99;99.08
9139;BME280;4604;48.616;9.548;2023-03-30T10:04:08;96584.50;;;13.09;96.01
9139;BME280;4604;48.616;9.548;2023-03-30T10:06:38;96593.25;;;12.85;94.59
9139;BME280;4604;48.616;9.548;2023-03-30T10:09:11;96594.44;;;12.99;95.54
9139;BME280;4604;48.616;9.548;2023-03-30T10:11:42;96596.06;;;12.92;97.43
9139;BME280;4604;48.616;9.548;2023-03-30T10:14:25;96600.88;;;12.96;95.14
9139;BME280;4604;48.616;9.548;2023-03-30T10:16:53;96601.06;;;13.11;93.26
9139;BME280;4604;48.616;9.548;2023-03-30T10:19:24;96597.78;;;13.17;84.77
9139;BME280;4604;48.616;9.548;2023-03-30T10:21:53;96599.63;;;13.25;85.77
9139;BME280;4604;48.616;9.548;2023-03-30T10:24:23;96608.09;;;13.37;87.05
9139;BME280;4604;48.616;9.548;2023-03-30T10:26:52;96606.94;;;13.39;82.90
9139;BME280;4604;48.616;9.548;2023-03-30T10:29:21;96599.16;;;13.62;84.55
9139;BME280;4604;48.616;9.548;2023-03-30T10:31:52;96597.84;;;13.42;81.75
9139;BME280;4604;48.616;9.548;2023-03-30T10:34:35;96615.06;;;13.62;80.63
9139;BME280;4604;48.616;9.548;2023-03-30T10:37:05;96598.31;;;13.70;78.96
9139;BME280;4604;48.616;9.548;2023-03-30T10:39:37;96604.31;;;13.64;79.99
9139;BME280;4604;48.616;9.548;2023-03-30T10:42:08;96605.97;;;13.73;82.30
9139;BME280;4604;48.616;9.548;2023-03-30T10:44:42;96618.22;;;13.66;80.99
9139;BME280;4604;48.616;9.548;2023-03-30T10:50:14;96606.78;;;13.74;81.18
9139;BME280;4604;48.616;9.548;2023-03-30T10:52:56;96617.22;;;13.75;80.63
9139;BME280;4604;48.616;9.548;2023-03-30T10:55:30;96595.00;;;13.84;80.59
9139;BME280;4604;48.616;9.548;2023-03-30T10:58:05;96603.94;;;14.00;79.43
9139;BME280;4604;48.616;9.548;2023-03-30T11:00:47;96588.19;;;13.98;79.84
9139;BME280;4604;48.616;9.548;2023-03-30T11:03:23;96597.97;;;13.98;81.27
9139;BME280;4604;48.616;9.548;2023-03-30T11:05:52;96596.97;;;13.99;80.29
9139;BME280;4604;48.616;9.548;2023-03-30T11:08:22;96586.50;;;13.97;82.32
9139;BME280;4604;48.616;9.548;2023-03-30T11:10:53;96587.66;;;14.11;81.01
9139;BME280;4604;48.616;9.548;2023-03-30T11:13:25;96601.91;;;14.02;82.52
9139;BME280;4604;48.616;9.548;2023-03-30T11:15:56;96592.69;;;13.81;82.88
9139;BME280;4604;48.616;9.548;2023-03-30T11:18:28;96595.84;;;13.77;82.95
9139;BME280;4604;48.616;9.548;2023-03-30T11:21:04;96600.97;;;13.86;84.40
9139;BME280;4604;48.616;9.548;2023-03-30T11:23:41;96599.63;;;13.82;84.40
9139;BME280;4604;48.616;9.548;2023-03-30T11:26:10;96614.91;;;13.80;84.01
9139;BME280;4604;48.616;9.548;2023-03-30T11:28:54;96593.34;;;13.83;85.08
9139;BME280;4604;48.616;9.548;2023-03-30T11:31:31;96599.97;;;13.79;87.10
9139;BME280;4604;48.616;9.548;2023-03-30T11:34:09;96595.66;;;13.86;85.97
9139;BME280;4604;48.616;9.548;2023-03-30T11:36:42;96589.19;;;13.89;85.67
9139;BME280;4604;48.616;9.548;2023-03-30T11:39:13;96595.97;;;13.91;86.92
9139;BME280;4604;48.616;9.548;2023-03-30T11:41:43;96599.63;;;13.99;89.72
9139;BME280;4604;48.616;9.548;2023-03-30T11:44:12;96602.91;;;14.09;88.62
9139;BME280;4604;48.616;9.548;2023-03-30T11:46:43;96595.44;;;14.04;89.19
9139;BME280;4604;48.616;9.548;2023-03-30T11:49:24;96589.50;;;14.02;84.46
9139;BME280;4604;48.616;9.548;2023-03-30T11:52:04;96581.28;;;14.37;86.67
9139;BME280;4604;48.616;9.548;2023-03-30T11:54:45;96566.78;;;14.47;83.80
9139;BME280;4604;48.616;9.548;2023-03-30T11:57:21;96575.50;;;14.72;82.11
9139;BME280;4604;48.616;9.548;2023-03-30T11:59:58;96585.13;;;14.73;82.12
9139;BME280;4604;48.616;9.548;2023-03-30T12:02:38;96606.47;;;14.88;80.76
9139;BME280;4604;48.616;9.548;2023-03-30T12:05:16;96592.25;;;15.04;80.16
9139;BME280;4604;48.616;9.548;2023-03-30T12:07:49;96553.06;;;15.06;80.61
9139;BME280;4604;48.616;9.548;2023-03-30T12:10:20;96555.78;;;15.21;79.08
9139;BME280;4604;48.616;9.548;2023-03-30T12:12:50;96565.06;;;15.02;80.70
9139;BME280;4604;48.616;9.548;2023-03-30T12:15:31;96587.00;;;14.96;76.31
9139;BME280;4604;48.616;9.548;2023-03-30T12:18:04;96594.75;;;14.74;77.09
9139;BME280;4604;48.616;9.548;2023-03-30T12:20:42;96570.59;;;14.92;77.79
9139;BME280;4604;48.616;9.548;2023-03-30T12:23:20;96591.31;;;14.97;75.44
9139;BME280;4604;48.616;9.548;2023-03-30T12:26:20;96575.47;;;14.81;73.71
9139;BME280;4604;48.616;9.548;2023-03-30T12:28:55;96584.88;;;14.91;72.39
9139;BME280;4604;48.616;9.548;2023-03-30T12:32:02;96584.84;;;14.60;72.41
9139;BME280;4604;48.616;9.548;2023-03-30T12:34:32;96582.06;;;14.85;71.97
9139;BME280;4604;48.616;9.548;2023-03-30T12:37:03;96596.59;;;14.74;69.72
9139;BME280;4604;48.616;9.548;2023-03-30T12:39:39;96590.75;;;14.79;69.90
9139;BME280;4604;48.616;9.548;2023-03-30T12:42:16;96589.41;;;14.83;69.27
9139;BME280;4604;48.616;9.548;2023-03-30T12:45:08;96578.38;;;14.94;69.21
9139;BME280;4604;48.616;9.548;2023-03-30T12:50:43;96556.28;;;15.16;69.90
9139;BME280;4604;48.616;9.548;2023-03-30T12:53:23;96583.78;;;15.32;68.33
9139;BME280;4604;48.616;9.548;2023-03-30T12:55:59;96571.53;;;15.46;68.88
9139;BME280;4604;48.616;9.548;2023-03-30T12:58:57;96565.47;;;15.37;70.03
9139;BME280;4604;48.616;9.548;2023-03-30T13:01:38;96561.56;;;15.25;66.79
9139;BME280;4604;48.616;9.548;2023-03-30T13:04:13;96563.28;;;15.17;67.78
9139;BME280;4604;48.616;9.548;2023-03-30T13:06:48;96550.34;;;15.37;65.61
9139;BME280;4604;48.616;9.548;2023-03-30T13:09:32;96558.72;;;15.49;65.65
9139;BME280;4604;48.616;9.548;2023-03-30T13:12:19;96564.31;;;15.54;63.09
9139;BME280;4604;48.616;9.548;2023-03-30T13:15:00;96547.72;;;15.75;64.09
9139;BME280;4604;48.616;9.548;2023-03-30T13:17:47;96550.47;;;15.82;63.75
9139;BME280;4604;48.616;9.548;2023-03-30T13:20:18;96551.38;;;15.74;63.19
9139;BME280;4604;48.616;9.548;2023-03-30T13:22:57;96563.69;;;15.75;62.71
9139;BME280;4604;48.616;9.548;2023-03-30T13:25:28;96555.94;;;15.66;62.59
9139;BME280;4604;48.616;9.548;2023-03-30T13:28:34;96536.78;;;15.47;63.27
9139;BME280;4604;48.616;9.548;2023-03-30T13:31:07;96537.91;;;15.76;62.14
9139;BME280;4604;48.616;9.548;2023-03-30T13:33:40;96537.66;;;16.15;61.36
9139;BME280;4604;48.616;9.548;2023-03-30T13:36:16;96534.53;;;15.59;62.94
9139;BME280;4604;48.616;9.548;2023-03-30T13:38:58;96533.31;;;15.84;62.92
9139;BME280;4604;48.616;9.548;2023-03-30T13:41:37;96537.66;;;16.15;62.32
9139;BME280;4604;48.616;9.548;2023-03-30T13:44:26;96522.56;;;16.37;62.12
9139;BME280;4604;48.616;9.548;2023-03-30T13:47:06;96535.81;;;16.16;61.50
9139;BME280;4604;48.616;9.548;2023-03-30T13:49:45;96505.69;;;16.15;61.08
9139;BME280;4604;48.616;9.548;2023-03-30T13:52:18;96520.94;;;15.92;57.93